Terminal Aerodrome Forecast
Issued by NWS

Home | Current Version | Previous Version | Text Only | Print | Product List | Glossary On
Versions: 1 2 3 4 5 6 7 8 9 10 11 12 13 14 15 16 17 18 19 20 21 22 23 24 25 26
000
FTAK31 PAFA 301130
TAFASC
TAF
PASC 301130Z 3012/3112 08005KT P6SM OVC012
     FM310000 10010KT P6SM BKN100
     FM311000 13010KT 5SM BR FEW015 BKN100=

USA.gov is the U.S. government's official web portal to all federal, state and local government web resources and services.